Time;durP1;ratioP1;P1;durP2;ratioP2;P2;SDS_P1;SDS_P2;PMS_P1;PMS_P2;Temp;Humidity;BMP_temperature;BMP_pressure;BME280_temperature;BME280_humidity;BME280_pressure;Samples;Min_cycle;Max_cycle;Signal;HPM_P1;HPM_P2
2022/01/25 00:09:07;;;;;;;;;9.00;7.40;;;;;;;;5250223;28;8779;-72
2022/01/25 00:26:04;;;;;;;;;7.00;6.60;;;;;;;;5250353;28;8847;-70
2022/01/25 00:31:18;;;;;;;;;10.60;10.00;;;;;;;;5249472;28;8779;-72
2022/01/25 00:33:54;;;;;;;;;6.00;6.00;;;;;;;;5266521;28;8771;-72
2022/01/25 00:36:26;;;;;;;;;14.00;13.00;;;;;;;;5232969;28;8789;-72
2022/01/25 00:38:58;;;;;;;;;9.80;9.80;;;;;;;;5233411;28;8802;-71
2022/01/25 00:41:29;;;;;;;;;12.80;12.20;;;;;;;;5216610;28;8779;-71
2022/01/25 00:44:01;;;;;;;;;9.20;9.00;;;;;;;;5249673;28;8875;-72
2022/01/25 00:46:33;;;;;;;;;12.00;12.00;;;;;;;;5249122;28;8755;-72
2022/01/25 00:49:04;;;;;;;;;12.00;10.80;;;;;;;;5233403;28;8774;-73
2022/01/25 00:51:57;;;;;;;;;7.00;7.00;;;;;;;;5249461;28;8767;-73
2022/01/25 00:54:29;;;;;;;;;9.40;9.40;;;;;;;;5249210;28;8786;-74
2022/01/25 00:57:01;;;;;;;;;4.80;4.80;;;;;;;;5250044;28;8806;-72
2022/01/25 00:59:32;;;;;;;;;10.80;10.00;;;;;;;;5249119;28;8854;-73
2022/01/25 01:02:22;;;;;;;;;6.00;6.00;;;;;;;;5249572;28;8779;-73
2022/01/25 01:04:57;;;;;;;;;9.20;9.20;;;;;;;;5249260;28;8921;-72
2022/01/25 01:07:28;;;;;;;;;10.00;10.00;;;;;;;;5232700;28;8859;-72
2022/01/25 01:10:00;;;;;;;;;5.80;5.80;;;;;;;;5232485;28;8863;-72
2022/01/25 01:29:43;;;;;;;;;7.00;7.00;;;;;;;;5253080;28;8793;-73
2022/01/25 01:40:56;;;;;;;;;9.00;9.00;;;;;;;;5213958;28;8951;-72
2022/01/25 01:43:33;;;;;;;;;9.00;8.20;;;;;;;;5252779;28;8798;-72
2022/01/25 01:48:57;;;;;;;;;9.60;9.60;;;;;;;;5270001;28;8763;-72
2022/01/25 01:51:35;;;;;;;;;18.40;18.40;;;;;;;;5236722;28;8799;-73
2022/01/25 01:54:10;;;;;;;;;9.20;9.20;;;;;;;;5237020;28;8775;-73
2022/01/25 01:56:42;;;;;;;;;10.00;10.00;;;;;;;;5252878;28;8778;-72
2022/01/25 01:59:15;;;;;;;;;20.60;18.20;;;;;;;;5236297;28;8766;-73
2022/01/25 02:01:47;;;;;;;;;10.00;10.00;;;;;;;;5270713;28;8787;-74
2022/01/25 02:04:18;;;;;;;;;21.40;18.80;;;;;;;;5253044;28;8822;-75
2022/01/25 02:06:50;;;;;;;;;18.40;16.80;;;;;;;;5236163;28;8798;-74
2022/01/25 02:09:22;;;;;;;;;11.20;10.00;;;;;;;;5270316;28;8781;-72
2022/01/25 02:12:11;;;;;;;;;12.40;9.60;;;;;;;;5252453;28;8779;-73
2022/01/25 02:14:42;;;;;;;;;9.60;9.60;;;;;;;;5252613;28;8831;-72
2022/01/25 02:17:39;;;;;;;;;9.60;9.60;;;;;;;;5235897;28;8901;-73
2022/01/25 02:23:00;;;;;;;;;6.80;6.80;;;;;;;;5269375;28;9476;-74
2022/01/25 02:25:32;;;;;;;;;12.20;12.20;;;;;;;;5235754;28;8807;-74
2022/01/25 02:28:03;;;;;;;;;23.00;21.40;;;;;;;;5235582;28;8743;-74
2022/01/25 02:30:35;;;;;;;;;23.40;21.80;;;;;;;;5235290;28;8779;-75
2022/01/25 02:33:25;;;;;;;;;16.40;16.40;;;;;;;;5252228;28;8771;-78
2022/01/25 02:35:57;;;;;;;;;16.40;16.40;;;;;;;;5235256;28;8775;-75
2022/01/25 02:38:30;;;;;;;;;20.40;20.00;;;;;;;;5251880;28;8936;-74
2022/01/25 02:41:02;;;;;;;;;12.00;12.00;;;;;;;;5252192;28;8766;-76
2022/01/25 02:43:35;;;;;;;;;9.00;9.00;;;;;;;;5235231;28;8810;-74
2022/01/25 02:48:51;;;;;;;;;8.00;8.00;;;;;;;;5270150;28;8786;-75
2022/01/25 02:51:26;;;;;;;;;7.80;7.80;;;;;;;;5251613;28;8767;-75
2022/01/25 02:53:58;;;;;;;;;10.00;10.00;;;;;;;;5235286;28;9515;-73
2022/01/25 02:56:30;;;;;;;;;10.00;10.00;;;;;;;;5251707;28;8887;-73
2022/01/25 02:59:02;;;;;;;;;9.40;9.40;;;;;;;;5218408;28;8815;-74
2022/01/25 03:01:34;;;;;;;;;9.80;9.80;;;;;;;;5251799;28;8774;-74
2022/01/25 03:04:24;;;;;;;;;9.00;8.60;;;;;;;;5251226;28;8795;-75
2022/01/25 03:06:57;;;;;;;;;15.20;14.60;;;;;;;;5234627;28;8811;-75
2022/01/25 03:09:28;;;;;;;;;7.80;7.80;;;;;;;;5235464;28;8815;-74
2022/01/25 03:12:02;;;;;;;;;5.60;3.00;;;;;;;;5268192;28;8810;-76
2022/01/25 03:14:46;;;;;;;;;10.80;10.80;;;;;;;;5235054;28;8783;-76
2022/01/25 03:17:25;;;;;;;;;6.40;6.00;;;;;;;;5234774;28;8767;-77
2022/01/25 03:20:17;;;;;;;;;6.80;6.80;;;;;;;;5234343;28;8766;-73
2022/01/25 03:22:58;;;;;;;;;10.20;10.20;;;;;;;;5234637;28;8778;-77
2022/01/25 03:25:29;;;;;;;;;6.80;6.80;;;;;;;;5234120;28;8817;-76
2022/01/25 03:28:01;;;;;;;;;8.60;7.80;;;;;;;;5234285;28;8782;-75
2022/01/25 03:30:33;;;;;;;;;12.20;12.20;;;;;;;;5250782;28;8840;-75
2022/01/25 03:33:04;;;;;;;;;7.60;6.60;;;;;;;;5234617;28;8785;-75
2022/01/25 03:35:36;;;;;;;;;10.80;9.60;;;;;;;;5268703;28;8910;-74
2022/01/25 03:38:08;;;;;;;;;8.20;8.20;;;;;;;;5234007;28;9513;-75
2022/01/25 03:40:39;;;;;;;;;21.00;20.80;;;;;;;;5250660;28;8802;-76
2022/01/25 03:43:15;;;;;;;;;16.20;15.60;;;;;;;;5250023;28;8833;-75
2022/01/25 03:45:59;;;;;;;;;9.60;9.60;;;;;;;;5217785;28;8898;-77
2022/01/25 03:51:23;;;;;;;;;18.60;17.80;;;;;;;;5250175;28;8778;-77
2022/01/25 03:54:13;;;;;;;;;12.20;12.20;;;;;;;;5250403;28;8770;-77
2022/01/25 03:56:45;;;;;;;;;13.00;13.00;;;;;;;;5250649;28;8770;-77
2022/01/25 03:59:17;;;;;;;;;16.60;16.60;;;;;;;;5250210;28;8798;-76
2022/01/25 04:01:48;;;;;;;;;21.40;20.20;;;;;;;;5250655;28;8775;-75
2022/01/25 04:04:23;;;;;;;;;10.80;9.80;;;;;;;;5216452;28;8844;-74
2022/01/25 04:06:57;;;;;;;;;18.20;16.00;;;;;;;;5249875;28;8775;-75
2022/01/25 04:09:30;;;;;;;;;12.20;12.20;;;;;;;;5250489;28;8791;-74
2022/01/25 04:12:03;;;;;;;;;61.25;49.75;;;;;;;;5250015;28;8778;-74
2022/01/25 04:14:35;;;;;;;;;12.60;12.60;;;;;;;;5249938;28;8759;-77
2022/01/25 04:17:09;;;;;;;;;11.20;11.20;;;;;;;;5233208;28;8766;-73
2022/01/25 04:19:45;;;;;;;;;7.80;7.80;;;;;;;;5250223;28;8763;-73
2022/01/25 04:27:54;;;;;;;;;10.80;10.80;;;;;;;;5249642;28;8809;-75
2022/01/25 04:30:25;;;;;;;;;27.25;21.75;;;;;;;;5233365;28;8783;-74
2022/01/25 04:33:01;;;;;;;;;12.80;12.80;;;;;;;;5232918;28;8775;-75
2022/01/25 04:49:33;;;;;;;;;11.80;11.20;;;;;;;;5266894;28;9462;-75
2022/01/25 04:52:09;;;;;;;;;7.40;7.40;;;;;;;;5267049;28;8925;-76
2022/01/25 05:00:09;;;;;;;;;7.40;6.80;;;;;;;;5249623;28;9470;-72
2022/01/25 05:03:10;;;;;;;;;9.60;6.60;;;;;;;;5266642;28;9482;-74
2022/01/25 05:05:55;;;;;;;;;16.20;16.20;;;;;;;;5232815;28;8778;-72
2022/01/25 05:08:47;;;;;;;;;12.40;12.40;;;;;;;;5232518;28;8789;-74
2022/01/25 05:16:32;;;;;;;;;22.20;21.00;;;;;;;;5249713;28;8790;-73
2022/01/25 05:24:41;;;;;;;;;5.40;5.40;;;;;;;;5266011;28;8802;-75
2022/01/25 05:31:36;;;;;;;;;19.00;16.60;;;;;;;;5288316;28;8709;-75
2022/01/25 05:34:08;;;;;;;;;12.00;12.00;;;;;;;;5236527;28;8772;-74
2022/01/25 05:36:43;;;;;;;;;13.40;12.40;;;;;;;;5236472;28;8796;-76
2022/01/25 05:39:19;;;;;;;;;10.60;10.20;;;;;;;;5237556;28;8781;-77
2022/01/25 05:45:10;;;;;;;;;13.00;10.00;;;;;;;;5232239;28;8873;-80
2022/01/25 05:52:06;;;;;;;;;10.80;9.80;;;;;;;;5287576;28;8701;-75
2022/01/25 05:59:00;;;;;;;;;12.80;12.00;;;;;;;;5287670;28;8765;-73
2022/01/25 06:01:32;;;;;;;;;7.40;7.40;;;;;;;;5270399;28;8784;-73
2022/01/25 06:04:04;;;;;;;;;16.00;16.00;;;;;;;;5269148;28;8812;-73
2022/01/25 06:06:35;;;;;;;;;12.60;11.40;;;;;;;;5238375;28;8784;-74
2022/01/25 06:09:06;;;;;;;;;10.80;9.80;;;;;;;;5240277;28;8776;-74
2022/01/25 06:11:38;;;;;;;;;10.80;10.80;;;;;;;;5256822;28;9479;-73
2022/01/25 06:14:09;;;;;;;;;10.60;10.60;;;;;;;;5257153;28;8882;-73
2022/01/25 06:16:40;;;;;;;;;21.40;19.40;;;;;;;;5273458;28;8785;-72
2022/01/25 06:19:11;;;;;;;;;11.40;10.80;;;;;;;;5273142;28;8815;-74
2022/01/25 06:21:42;;;;;;;;;6.00;6.00;;;;;;;;5256293;28;8788;-73
2022/01/25 06:24:13;;;;;;;;;4.60;4.60;;;;;;;;5273247;28;8819;-72
2022/01/25 06:26:45;;;;;;;;;7.80;7.80;;;;;;;;5272731;28;8912;-72
2022/01/25 06:29:18;;;;;;;;;8.60;7.80;;;;;;;;5239609;28;8788;-74
2022/01/25 06:31:49;;;;;;;;;9.00;9.00;;;;;;;;5239644;28;8807;-72
2022/01/25 06:34:39;;;;;;;;;5.60;4.40;;;;;;;;5258559;28;8877;-73
2022/01/25 06:37:12;;;;;;;;;10.80;10.80;;;;;;;;5239683;28;8898;-72
2022/01/25 06:39:43;;;;;;;;;10.60;10.60;;;;;;;;5239440;28;8785;-74
2022/01/25 06:42:14;;;;;;;;;3.20;3.20;;;;;;;;5239310;28;8820;-75
2022/01/25 06:44:46;;;;;;;;;19.80;17.60;;;;;;;;5256277;28;8881;-73
2022/01/25 06:47:17;;;;;;;;;25.00;20.40;;;;;;;;5255622;28;8799;-74
2022/01/25 06:49:48;;;;;;;;;21.60;20.20;;;;;;;;5239140;28;9483;-73
2022/01/25 06:52:19;;;;;;;;;23.60;22.40;;;;;;;;5256002;28;8800;-72
2022/01/25 06:55:10;;;;;;;;;15.80;15.60;;;;;;;;5275589;28;8784;-73
2022/01/25 06:57:41;;;;;;;;;7.40;7.40;;;;;;;;5239145;28;8776;-74
2022/01/25 07:00:15;;;;;;;;;18.00;16.00;;;;;;;;5255621;28;8796;-74
2022/01/25 07:02:46;;;;;;;;;15.00;13.40;;;;;;;;5272993;28;8911;-74
2022/01/25 07:05:17;;;;;;;;;18.00;16.80;;;;;;;;5238976;28;8792;-74
2022/01/25 07:07:49;;;;;;;;;9.60;9.60;;;;;;;;5255954;28;8900;-74
2022/01/25 07:10:21;;;;;;;;;12.60;12.60;;;;;;;;5255668;28;8765;-74
2022/01/25 07:12:52;;;;;;;;;10.00;10.00;;;;;;;;5291214;28;8875;-73
2022/01/25 07:15:24;;;;;;;;;7.40;7.40;;;;;;;;5255039;28;9606;-74
2022/01/25 07:17:56;;;;;;;;;7.00;7.00;;;;;;;;5254504;28;8784;-75
2022/01/25 07:20:27;;;;;;;;;13.80;12.20;;;;;;;;5238437;28;8773;-75
2022/01/25 07:22:58;;;;;;;;;9.40;9.40;;;;;;;;5255883;28;8780;-75
2022/01/25 07:25:30;;;;;;;;;10.40;10.40;;;;;;;;5238429;28;8820;-74
2022/01/25 07:28:19;;;;;;;;;6.20;5.60;;;;;;;;5274870;28;8760;-74
2022/01/25 07:30:51;;;;;;;;;15.40;13.80;;;;;;;;5255220;28;8764;-73
2022/01/25 07:33:22;;;;;;;;;11.60;11.60;;;;;;;;5255487;28;9494;-74
2022/01/25 07:35:53;;;;;;;;;18.40;15.80;;;;;;;;5271614;28;8784;-74
2022/01/25 07:38:25;;;;;;;;;20.00;17.40;;;;;;;;5254892;28;8860;-74
2022/01/25 07:40:56;;;;;;;;;25.20;24.00;;;;;;;;5254644;28;8768;-74
2022/01/25 07:43:27;;;;;;;;;28.80;23.40;;;;;;;;5237770;28;8816;-74
2022/01/25 07:46:04;;;;;;;;;26.40;24.80;;;;;;;;5254176;28;8804;-74
2022/01/25 07:48:35;;;;;;;;;31.80;30.20;;;;;;;;5238546;28;8796;-73
2022/01/25 07:51:07;;;;;;;;;22.60;22.60;;;;;;;;5238017;28;8776;-74
2022/01/25 07:53:41;;;;;;;;;30.20;28.40;;;;;;;;5237671;28;8764;-73
2022/01/25 07:56:12;;;;;;;;;20.00;19.80;;;;;;;;5254391;28;8773;-75
2022/01/25 07:58:44;;;;;;;;;19.60;18.00;;;;;;;;5238223;28;8776;-73
2022/01/25 08:01:15;;;;;;;;;24.20;23.60;;;;;;;;5254644;28;8773;-75
2022/01/25 08:03:46;;;;;;;;;40.40;36.20;;;;;;;;5237756;28;8857;-72
2022/01/25 08:06:17;;;;;;;;;29.20;27.40;;;;;;;;5254840;28;8784;-73
2022/01/25 08:08:48;;;;;;;;;24.80;24.00;;;;;;;;5237702;28;8809;-73
2022/01/25 08:11:20;;;;;;;;;31.00;28.00;;;;;;;;5237571;28;8808;-73
2022/01/25 08:13:52;;;;;;;;;45.60;40.00;;;;;;;;5237565;28;9701;-74
2022/01/25 08:16:23;;;;;;;;;36.20;33.40;;;;;;;;5254028;28;8830;-70
2022/01/25 08:18:54;;;;;;;;;26.50;24.25;;;;;;;;5270678;28;8781;-69
2022/01/25 08:21:26;;;;;;;;;25.50;24.00;;;;;;;;5289143;28;8861;-64
2022/01/25 08:23:57;;;;;;;;;21.60;21.60;;;;;;;;5288785;28;8824;-70
2022/01/25 08:26:27;;;;;;;;;23.50;23.50;;;;;;;;5270701;28;8772;-71
2022/01/25 08:28:59;;;;;;;;;23.00;23.00;;;;;;;;5270798;28;8826;-79
2022/01/25 08:31:30;;;;;;;;;21.20;21.20;;;;;;;;5270922;28;8800;-76
2022/01/25 08:34:01;;;;;;;;;31.60;29.20;;;;;;;;5237523;28;8869;-76
2022/01/25 08:36:32;;;;;;;;;24.20;23.60;;;;;;;;5288777;28;8780;-73
2022/01/25 08:39:04;;;;;;;;;20.00;20.00;;;;;;;;5253552;28;8799;-76
2022/01/25 08:41:53;;;;;;;;;22.60;22.60;;;;;;;;5270220;28;11438;-73
2022/01/25 08:44:24;;;;;;;;;19.50;18.75;;;;;;;;5253645;28;9483;-74
2022/01/25 08:46:55;;;;;;;;;17.40;17.20;;;;;;;;5253804;28;8785;-74
2022/01/25 08:49:27;;;;;;;;;39.20;35.00;;;;;;;;5270293;28;8853;-75
2022/01/25 08:51:58;;;;;;;;;34.40;33.20;;;;;;;;5253529;28;8772;-75
2022/01/25 08:54:30;;;;;;;;;36.75;36.50;;;;;;;;5271076;28;8922;-74
2022/01/25 08:57:19;;;;;;;;;29.20;27.80;;;;;;;;5256181;28;8928;-75
2022/01/25 08:59:50;;;;;;;;;26.60;21.80;;;;;;;;5253531;28;8796;-75
2022/01/25 09:02:41;;;;;;;;;19.20;17.60;;;;;;;;5270710;28;8857;-75
2022/01/25 09:05:12;;;;;;;;;23.20;22.00;;;;;;;;5270037;28;8808;-74
2022/01/25 09:07:43;;;;;;;;;21.00;21.00;;;;;;;;5270102;28;9586;-75
2022/01/25 09:10:15;;;;;;;;;20.60;17.00;;;;;;;;5237373;28;8776;-75
2022/01/25 09:12:45;;;;;;;;;22.20;21.00;;;;;;;;5270009;28;8772;-75
2022/01/25 09:15:17;;;;;;;;;18.00;18.00;;;;;;;;5254033;28;8853;-74
2022/01/25 09:17:48;;;;;;;;;17.20;17.20;;;;;;;;5288170;28;9096;-74
2022/01/25 09:20:20;;;;;;;;;5.80;5.80;;;;;;;;5288888;28;9443;-74
2022/01/25 09:22:51;;;;;;;;;22.40;21.20;;;;;;;;5236502;28;8842;-74
2022/01/25 09:25:22;;;;;;;;;22.50;21.75;;;;;;;;5253930;28;8808;-74
2022/01/25 09:28:11;;;;;;;;;16.60;14.40;;;;;;;;5270459;28;10494;-75
2022/01/25 09:30:43;;;;;;;;;22.50;20.25;;;;;;;;5269962;28;8760;-75
2022/01/25 09:33:14;;;;;;;;;14.80;14.80;;;;;;;;5270545;28;10105;-76
2022/01/25 09:35:45;;;;;;;;;14.20;14.20;;;;;;;;5269824;28;8780;-76
2022/01/25 09:38:16;;;;;;;;;20.00;19.60;;;;;;;;5269710;28;8780;-76
2022/01/25 09:40:48;;;;;;;;;19.80;19.80;;;;;;;;5236803;28;8768;-76
2022/01/25 09:43:20;;;;;;;;;21.20;21.20;;;;;;;;5273565;28;8809;-76
2022/01/25 09:45:51;;;;;;;;;33.00;28.20;;;;;;;;5240205;28;8805;-74
2022/01/25 09:48:23;;;;;;;;;22.80;22.00;;;;;;;;5274534;28;8792;-75
2022/01/25 09:51:13;;;;;;;;;25.80;25.80;;;;;;;;5274773;28;8785;-75
2022/01/25 09:53:43;;;;;;;;;25.80;25.80;;;;;;;;5274396;28;8791;-75
2022/01/25 09:56:14;;;;;;;;;22.80;21.80;;;;;;;;5257446;28;8900;-75
2022/01/25 09:58:45;;;;;;;;;20.00;20.00;;;;;;;;5292160;28;8923;-74
2022/01/25 10:01:24;;;;;;;;;21.60;20.80;;;;;;;;5274050;28;9495;-74
2022/01/25 10:03:55;;;;;;;;;20.60;20.60;;;;;;;;5240214;28;8915;-75
2022/01/25 10:06:30;;;;;;;;;18.80;18.00;;;;;;;;5257002;28;8788;-75
2022/01/25 10:09:01;;;;;;;;;21.00;19.00;;;;;;;;5273334;28;8795;-75
2022/01/25 10:11:37;;;;;;;;;15.75;14.00;;;;;;;;5273841;28;8777;-75
2022/01/25 10:14:08;;;;;;;;;28.80;28.00;;;;;;;;5239767;28;11427;-75
2022/01/25 10:16:42;;;;;;;;;25.50;24.00;;;;;;;;5256918;28;8793;-76
2022/01/25 10:19:13;;;;;;;;;15.80;15.80;;;;;;;;5256367;28;11418;-76
2022/01/25 10:26:08;;;;;;;;;9.40;9.40;;;;;;;;5291223;28;8760;-72
2022/01/25 10:28:39;;;;;;;;;10.20;10.20;;;;;;;;5256298;28;8899;-73
2022/01/25 10:31:11;;;;;;;;;17.50;15.25;;;;;;;;5256272;28;8954;-72
2022/01/25 10:34:00;;;;;;;;;20.60;20.60;;;;;;;;5276326;28;11209;-75
2022/01/25 10:36:31;;;;;;;;;27.50;24.00;;;;;;;;5273062;28;8942;-74
2022/01/25 10:39:02;;;;;;;;;14.80;14.80;;;;;;;;5255842;28;11475;-75
2022/01/25 10:41:33;;;;;;;;;16.60;15.80;;;;;;;;5272979;28;8829;-73
2022/01/25 10:44:05;;;;;;;;;18.00;17.40;;;;;;;;5256143;28;8793;-74
2022/01/25 10:46:37;;;;;;;;;25.40;24.60;;;;;;;;5255631;28;8778;-75
2022/01/25 10:49:13;;;;;;;;;31.60;28.80;;;;;;;;5272465;28;9464;-74
2022/01/25 10:51:46;;;;;;;;;23.40;20.40;;;;;;;;5238998;28;8770;-75
2022/01/25 10:58:42;;;;;;;;;14.20;14.20;;;;;;;;5290082;28;8730;-76
2022/01/25 11:01:28;;;;;;;;;26.60;22.20;;;;;;;;5290826;28;8777;-77
2022/01/25 11:04:07;;;;;;;;;18.20;17.20;;;;;;;;5239223;28;8762;-77
2022/01/25 11:06:38;;;;;;;;;21.60;21.60;;;;;;;;5239290;28;9568;-77
2022/01/25 11:09:11;;;;;;;;;25.50;24.75;;;;;;;;5255452;28;8901;-78
2022/01/25 11:11:46;;;;;;;;;25.20;22.00;;;;;;;;5239024;28;11404;-77
2022/01/25 11:18:41;;;;;;;;;13.80;13.60;;;;;;;;5269113;28;8724;-78
2022/01/25 11:25:36;;;;;;;;;12.60;12.40;;;;;;;;5269021;28;8752;-78
2022/01/25 11:28:07;;;;;;;;;11.80;10.00;;;;;;;;5250967;28;8788;-77
2022/01/25 11:30:38;;;;;;;;;15.50;15.50;;;;;;;;5269233;28;8783;-77
2022/01/25 11:33:10;;;;;;;;;8.60;7.80;;;;;;;;5217588;28;11450;-77
2022/01/25 11:35:41;;;;;;;;;12.80;12.80;;;;;;;;5218207;28;8810;-77
2022/01/25 11:38:32;;;;;;;;;16.40;15.00;;;;;;;;5236505;28;8814;-77
2022/01/25 11:41:08;;;;;;;;;12.60;12.60;;;;;;;;5218374;28;8783;-78
2022/01/25 11:43:41;;;;;;;;;19.00;18.60;;;;;;;;5236671;28;8889;-77
2022/01/25 11:46:12;;;;;;;;;14.20;12.60;;;;;;;;5222677;28;8790;-77
2022/01/25 11:48:44;;;;;;;;;7.00;7.00;;;;;;;;5235780;28;8795;-78
2022/01/25 11:51:18;;;;;;;;;19.80;16.60;;;;;;;;5230340;28;11455;-78
2022/01/25 11:53:50;;;;;;;;;25.40;25.40;;;;;;;;5213896;28;8770;-78
2022/01/25 11:56:25;;;;;;;;;17.20;17.20;;;;;;;;5232319;28;8775;-79
2022/01/25 11:59:14;;;;;;;;;23.60;23.60;;;;;;;;5230267;28;8888;-78
2022/01/25 12:01:49;;;;;;;;;18.00;18.00;;;;;;;;5229383;28;8901;-78
2022/01/25 12:04:20;;;;;;;;;30.40;28.60;;;;;;;;5229385;28;9725;-78
2022/01/25 12:07:00;;;;;;;;;17.50;17.50;;;;;;;;5229554;28;8798;-78
2022/01/25 12:09:48;;;;;;;;;23.80;23.20;;;;;;;;5213155;28;11417;-78
2022/01/25 12:12:21;;;;;;;;;20.00;20.00;;;;;;;;5229472;28;8770;-78
2022/01/25 12:14:55;;;;;;;;;26.20;21.60;;;;;;;;5229200;28;8767;-78
2022/01/25 12:17:27;;;;;;;;;15.80;14.80;;;;;;;;5213773;28;8904;-78
2022/01/25 12:19:59;;;;;;;;;21.20;19.00;;;;;;;;5213643;28;8767;-78
2022/01/25 12:22:39;;;;;;;;;27.80;24.00;;;;;;;;5246827;28;8779;-79
2022/01/25 12:25:26;;;;;;;;;14.60;12.00;;;;;;;;5212798;28;8790;-78
2022/01/25 12:28:00;;;;;;;;;29.40;28.80;;;;;;;;5212109;28;8767;-78
2022/01/25 12:30:34;;;;;;;;;17.60;16.00;;;;;;;;5212930;28;8852;-78
2022/01/25 12:33:24;;;;;;;;;24.80;24.80;;;;;;;;5229029;28;8762;-78
2022/01/25 12:36:03;;;;;;;;;12.20;12.20;;;;;;;;5229539;28;8775;-79
2022/01/25 12:38:43;;;;;;;;;16.00;16.00;;;;;;;;5196325;28;8763;-77
2022/01/25 12:41:18;;;;;;;;;18.20;18.20;;;;;;;;5230029;28;9601;-78
2022/01/25 12:43:53;;;;;;;;;22.00;21.60;;;;;;;;5216507;28;8932;-78
2022/01/25 12:46:29;;;;;;;;;25.20;24.20;;;;;;;;5233335;28;8769;-78
2022/01/25 12:49:00;;;;;;;;;21.00;21.00;;;;;;;;5232933;28;8833;-78
2022/01/25 12:51:36;;;;;;;;;21.60;21.60;;;;;;;;5232778;28;8803;-77
2022/01/25 12:54:10;;;;;;;;;32.60;29.60;;;;;;;;5232938;28;8791;-78
2022/01/25 12:56:42;;;;;;;;;23.20;21.80;;;;;;;;5232663;28;8792;-79
2022/01/25 12:59:16;;;;;;;;;18.60;18.60;;;;;;;;5249627;28;8788;-77
2022/01/25 13:01:48;;;;;;;;;30.60;28.60;;;;;;;;5267529;28;8948;-78
2022/01/25 13:04:19;;;;;;;;;40.80;36.20;;;;;;;;5232482;28;8932;-79
2022/01/25 13:06:52;;;;;;;;;30.00;29.50;;;;;;;;5249485;28;8926;-77
2022/01/25 13:09:28;;;;;;;;;30.80;29.60;;;;;;;;5232936;28;8771;-77
2022/01/25 13:17:26;;;;;;;;;22.20;20.80;;;;;;;;5252666;28;8772;-78
2022/01/25 13:20:00;;;;;;;;;23.60;22.60;;;;;;;;5236876;28;8864;-75
2022/01/25 13:22:51;;;;;;;;;28.40;26.60;;;;;;;;5256226;28;8788;-77
2022/01/25 13:32:40;;;;;;;;;26.20;23.20;;;;;;;;5253398;28;8752;-76
2022/01/25 13:35:22;;;;;;;;;70.75;58.00;;;;;;;;5271050;28;8849;-76
2022/01/25 13:38:13;;;;;;;;;57.00;48.75;;;;;;;;5253271;28;8771;-74
2022/01/25 13:49:31;;;;;;;;;29.50;29.50;;;;;;;;5249732;28;8864;-77
2022/01/25 13:52:04;;;;;;;;;31.20;30.00;;;;;;;;5249724;28;8777;-76
2022/01/25 13:54:35;;;;;;;;;23.20;22.20;;;;;;;;5198999;28;8849;-76
2022/01/25 13:57:09;;;;;;;;;33.00;31.00;;;;;;;;5231956;28;8816;-73
2022/01/25 13:59:41;;;;;;;;;19.00;16.00;;;;;;;;5231392;28;10901;-74
2022/01/25 14:02:12;;;;;;;;;9.20;8.80;;;;;;;;5232444;28;8801;-77
2022/01/25 14:04:43;;;;;;;;;21.40;21.40;;;;;;;;5198587;28;8800;-75
2022/01/25 14:07:15;;;;;;;;;21.00;20.60;;;;;;;;5231481;28;8777;-75
2022/01/25 14:09:49;;;;;;;;;14.60;13.00;;;;;;;;5249483;28;8857;-76
2022/01/25 14:22:28;;;;;;;;;31.20;31.20;;;;;;;;5215398;28;8785;-76
2022/01/25 14:25:00;;;;;;;;;30.00;29.25;;;;;;;;5264310;28;8812;-74
2022/01/25 14:27:39;;;;;;;;;28.20;27.80;;;;;;;;5264568;28;8788;-75
2022/01/25 14:30:33;;;;;;;;;41.50;35.00;;;;;;;;5235832;28;8811;-76
2022/01/25 14:33:11;;;;;;;;;59.75;50.25;;;;;;;;5215244;28;8755;-74
2022/01/25 14:35:54;;;;;;;;;31.25;27.75;;;;;;;;5232464;28;8816;-75
2022/01/25 14:38:26;;;;;;;;;31.50;29.75;;;;;;;;5250729;28;8773;-76
2022/01/25 14:45:38;;;;;;;;;27.50;27.00;;;;;;;;5291047;28;8785;-74
2022/01/25 14:48:14;;;;;;;;;25.50;24.25;;;;;;;;5239146;28;8789;-74
2022/01/25 14:50:44;;;;;;;;;25.60;25.60;;;;;;;;5252313;28;11403;-73
2022/01/25 14:57:51;;;;;;;;;55.25;49.25;;;;;;;;5268470;28;9421;-74
2022/01/25 15:04:46;;;;;;;;;20.80;19.00;;;;;;;;5250774;28;8840;-75
2022/01/25 15:11:40;;;;;;;;;28.50;24.75;;;;;;;;5269249;28;8711;-73
2022/01/25 15:14:20;;;;;;;;;36.25;33.75;;;;;;;;5251090;28;8856;-74
2022/01/25 15:16:51;;;;;;;;;28.25;26.00;;;;;;;;5218002;28;8799;-74
2022/01/25 15:19:22;;;;;;;;;31.75;31.75;;;;;;;;5234414;28;8782;-78
2022/01/25 15:21:53;;;;;;;;;22.25;22.25;;;;;;;;5250684;28;8778;-78
2022/01/25 15:24:27;;;;;;;;;24.00;23.33;;;;;;;;5251147;28;8865;-78
2022/01/25 15:27:04;;;;;;;;;25.25;22.00;;;;;;;;5234336;28;11460;-78
2022/01/25 15:29:36;;;;;;;;;23.75;23.75;;;;;;;;5218101;28;8775;-79
2022/01/25 15:32:08;;;;;;;;;26.25;26.25;;;;;;;;5217783;28;8778;-82
2022/01/25 15:34:41;;;;;;;;;20.00;18.00;;;;;;;;5251237;28;8813;-78
2022/01/25 15:37:13;;;;;;;;;27.50;27.00;;;;;;;;5234340;28;8794;-77
2022/01/25 15:39:45;;;;;;;;;20.25;20.25;;;;;;;;5216674;28;8763;-77
2022/01/25 15:42:18;;;;;;;;;18.25;16.75;;;;;;;;5217742;28;8788;-78
2022/01/25 15:44:51;;;;;;;;;29.50;27.50;;;;;;;;5250496;28;8803;-78
2022/01/25 15:47:26;;;;;;;;;17.25;16.50;;;;;;;;5268411;28;8829;-78
2022/01/25 15:50:15;;;;;;;;;15.25;14.00;;;;;;;;5250929;28;8775;-76
2022/01/25 15:52:46;;;;;;;;;75.00;60.00;;;;;;;;5233767;28;8783;-77
2022/01/25 15:55:18;;;;;;;;;36.50;34.00;;;;;;;;5268321;28;8775;-78
2022/01/25 15:58:07;;;;;;;;;38.75;32.25;;;;;;;;5236231;28;8783;-77
2022/01/25 16:00:39;;;;;;;;;25.67;25.67;;;;;;;;5233950;28;8791;-76
2022/01/25 16:03:32;;;;;;;;;30.00;28.75;;;;;;;;5236578;28;9546;-81
2022/01/25 16:06:04;;;;;;;;;9.25;9.25;;;;;;;;5217129;28;8833;-78
2022/01/25 16:08:37;;;;;;;;;29.50;27.25;;;;;;;;5250370;28;8786;-77
2022/01/25 16:11:15;;;;;;;;;24.25;23.75;;;;;;;;5233564;28;8779;-77
2022/01/25 16:14:04;;;;;;;;;30.75;29.25;;;;;;;;5252969;28;8775;-79
2022/01/25 16:16:36;;;;;;;;;22.00;21.33;;;;;;;;5253718;28;8858;-80
2022/01/25 16:19:32;;;;;;;;;23.50;20.00;;;;;;;;5243047;28;11492;-77
2022/01/25 16:22:04;;;;;;;;;23.00;22.50;;;;;;;;5258592;28;8814;-78
2022/01/25 16:24:35;;;;;;;;;26.00;25.75;;;;;;;;5234514;28;8806;-79
2022/01/25 16:27:06;;;;;;;;;26.50;25.75;;;;;;;;5268183;28;8779;-78
2022/01/25 16:29:38;;;;;;;;;22.00;21.25;;;;;;;;5249846;28;9556;-78
2022/01/25 16:32:13;;;;;;;;;32.67;29.67;;;;;;;;5250034;28;9548;-79
2022/01/25 16:34:44;;;;;;;;;29.75;28.25;;;;;;;;5249798;28;9482;-79
2022/01/25 16:37:15;;;;;;;;;40.67;40.67;;;;;;;;5250081;28;8871;-79
2022/01/25 16:39:49;;;;;;;;;50.50;47.25;;;;;;;;5233760;28;11743;-78
2022/01/25 16:42:20;;;;;;;;;65.50;51.75;;;;;;;;5250045;28;9519;-77
2022/01/25 16:45:11;;;;;;;;;37.25;36.75;;;;;;;;5249193;28;8822;-79
2022/01/25 16:47:42;;;;;;;;;26.67;26.00;;;;;;;;5216416;28;8794;-76
2022/01/25 16:50:35;;;;;;;;;36.50;33.75;;;;;;;;5235813;28;8791;-74
2022/01/25 16:53:06;;;;;;;;;41.75;39.00;;;;;;;;5216139;28;8790;-76
2022/01/25 16:55:37;;;;;;;;;29.25;28.50;;;;;;;;5233530;28;8766;-78
2022/01/25 16:58:11;;;;;;;;;24.00;23.50;;;;;;;;5233378;28;8802;-77
2022/01/25 17:00:43;;;;;;;;;22.67;21.67;;;;;;;;5249380;28;8774;-76
2022/01/25 17:03:14;;;;;;;;;21.25;21.25;;;;;;;;5249452;28;8778;-77
2022/01/25 17:05:45;;;;;;;;;48.33;44.00;;;;;;;;5249948;28;8802;-76
2022/01/25 17:08:16;;;;;;;;;22.25;21.75;;;;;;;;5249374;28;8945;-78
2022/01/25 17:11:05;;;;;;;;;18.50;18.00;;;;;;;;5249071;28;8771;-79
2022/01/25 17:13:37;;;;;;;;;18.67;16.00;;;;;;;;5249265;28;8775;-78
2022/01/25 17:16:09;;;;;;;;;18.25;17.75;;;;;;;;5232503;28;11449;-77
2022/01/25 17:18:42;;;;;;;;;24.75;22.50;;;;;;;;5267145;28;8838;-77
2022/01/25 17:21:13;;;;;;;;;25.25;24.50;;;;;;;;5249271;28;9473;-78
2022/01/25 17:23:44;;;;;;;;;21.25;20.50;;;;;;;;5248882;28;8778;-79
2022/01/25 17:26:15;;;;;;;;;21.67;21.67;;;;;;;;5249516;28;8802;-79
2022/01/25 17:28:46;;;;;;;;;22.67;21.33;;;;;;;;5215693;28;11608;-80
2022/01/25 17:31:19;;;;;;;;;23.67;23.67;;;;;;;;5267583;28;11417;-79
2022/01/25 17:33:50;;;;;;;;;44.25;36.25;;;;;;;;5231849;28;11408;-78
2022/01/25 17:36:20;;;;;;;;;22.67;21.33;;;;;;;;5215692;28;8843;-77
2022/01/25 17:38:53;;;;;;;;;26.50;25.50;;;;;;;;5215741;28;8814;-76
2022/01/25 17:41:24;;;;;;;;;22.00;22.00;;;;;;;;5248746;28;8771;-77
2022/01/25 17:43:55;;;;;;;;;20.50;20.50;;;;;;;;5249154;28;8817;-77
2022/01/25 17:46:26;;;;;;;;;23.75;21.00;;;;;;;;5232336;28;8818;-77
2022/01/25 17:48:58;;;;;;;;;11.33;9.67;;;;;;;;5232234;28;11617;-76
2022/01/25 17:51:32;;;;;;;;;16.25;16.25;;;;;;;;5248570;28;11448;-76
2022/01/25 17:54:03;;;;;;;;;22.25;22.25;;;;;;;;5215516;28;8790;-75
2022/01/25 17:56:37;;;;;;;;;22.25;22.25;;;;;;;;5248593;28;8787;-76
2022/01/25 17:59:08;;;;;;;;;13.80;11.20;;;;;;;;5249054;28;8822;-77
2022/01/25 18:01:39;;;;;;;;;15.00;15.00;;;;;;;;5266219;28;8790;-76
2022/01/25 18:04:29;;;;;;;;;15.40;15.40;;;;;;;;5253176;28;8814;-76
2022/01/25 18:07:00;;;;;;;;;17.60;17.60;;;;;;;;5235913;28;8804;-76
2022/01/25 18:09:31;;;;;;;;;19.67;17.67;;;;;;;;5252429;28;8790;-77
2022/01/25 18:12:02;;;;;;;;;18.00;18.00;;;;;;;;5270361;28;9967;-76
2022/01/25 18:14:33;;;;;;;;;20.25;20.25;;;;;;;;5252508;28;8798;-76
2022/01/25 18:17:04;;;;;;;;;37.33;33.67;;;;;;;;5236161;28;8782;-77